Archival Weather

Sydney Intl

Sydney, Australia (YSSY)

Report from: Saturday, March 18, 2023 3:30 PM AEDT
Current time: Wednesday, December 6, 2023 6:02 PM AEDT

Current weather – Weather history – Daily summaries
Weather forecast

Temperature29.0°C (84.2°F)
Heat index31.0°C (87.8°F)
Dew point20.0°C (68.0°F)
Winds 17 kts (8.7 m/s, 19.6 mph) North-Northeast (30°)
Clouds Sky clear
Altimeter30.00 in.Hg (1016 mB)
Relative humidity58 %
Density altitude1,832 ft. (559 m)
Remarks Ceiling and visibility OK
Flight conditions Visual Meteorological Conditions
Raw dataYSSY 180430Z 03017KT CAVOK 29/20 Q1016
An error has occurred. This application may no longer respond until reloaded. Reload 🗙